createdAt,value
2022-08-26T00:02:31.943Z,99719.38
2022-08-26T00:05:20.620Z,99707.72
2022-08-26T00:08:13.021Z,99712.31
2022-08-26T00:11:02.054Z,99650.91
2022-08-26T00:13:50.639Z,99713.44
2022-08-26T00:16:40.932Z,99702.56
2022-08-26T00:19:36.061Z,99715.59
2022-08-26T00:22:24.656Z,99712.06
2022-08-26T00:25:16.067Z,99712.06
2022-08-26T00:28:06.301Z,99710.47
2022-08-26T00:30:55.984Z,99715.16
2022-08-26T00:33:44.649Z,99710.53
2022-08-26T00:36:33.177Z,99716.75
2022-08-26T00:39:21.949Z,99706.97
2022-08-26T00:42:12.058Z,99708.09
2022-08-26T00:45:00.615Z,99693.44
2022-08-26T00:47:51.201Z,99695.94
2022-08-26T00:50:43.292Z,99721.75
2022-08-26T00:53:34.446Z,99709.28
2022-08-26T00:56:25.385Z,99681.84
2022-08-26T00:59:17.184Z,99716.38
2022-08-26T01:02:06.349Z,99718.28
2022-08-26T01:04:58.068Z,99713.41
2022-08-26T01:07:46.789Z,99722.34
2022-08-26T01:10:35.398Z,99712.28
2022-08-26T01:13:24.340Z,99713.97
2022-08-26T01:16:16.850Z,99718.00
2022-08-26T01:19:12.729Z,99718.28
2022-08-26T01:22:03.904Z,99704.19
2022-08-26T01:24:53.934Z,99703.38
2022-08-26T01:27:43.354Z,99689.75
2022-08-26T01:30:35.141Z,99705.84
2022-08-26T01:33:26.535Z,99711.53
2022-08-26T01:36:15.676Z,99720.25
2022-08-26T01:39:05.834Z,99703.13
2022-08-26T01:41:58.576Z,99714.53
2022-08-26T01:44:54.077Z,99717.25
2022-08-26T01:47:43.266Z,99715.34
2022-08-26T01:50:34.149Z,99661.22
2022-08-26T01:53:23.232Z,99713.19
2022-08-26T01:56:13.005Z,99710.97
2022-08-26T01:59:05.052Z,99711.53
2022-08-26T02:01:54.444Z,99712.91
2022-08-26T02:04:48.605Z,99722.44
2022-08-26T02:07:39.724Z,99711.28
2022-08-26T02:10:28.224Z,99724.63
2022-08-26T02:13:16.801Z,99719.19
2022-08-26T02:16:08.407Z,99718.63
2022-08-26T02:18:58.568Z,99727.91
2022-08-26T02:21:51.226Z,99727.34
2022-08-26T02:24:49.386Z,99718.09
2022-08-26T02:27:38.206Z,99716.47
2022-08-26T02:30:28.789Z,99716.22
2022-08-26T02:33:18.639Z,99726.28
2022-08-26T02:36:08.042Z,99726.28
2022-08-26T02:38:56.700Z,99715.94
2022-08-26T02:41:46.866Z,99702.63
2022-08-26T02:44:36.776Z,99696.88
2022-08-26T02:47:25.487Z,99721.91
2022-08-26T02:50:19.334Z,99715.41
2022-08-26T02:53:08.284Z,99713.50
2022-08-26T02:55:56.953Z,99707.25
2022-08-26T02:58:48.664Z,99718.38
2022-08-26T03:01:37.449Z,99719.19
2022-08-26T03:04:26.123Z,99715.91
2022-08-26T03:07:16.174Z,99727.88
2022-08-26T03:10:08.718Z,99723.78
2022-08-26T03:12:58.080Z,99724.34
2022-08-26T03:15:47.641Z,99719.38
2022-08-26T03:18:36.561Z,99711.19
2022-08-26T03:21:25.083Z,99724.50
2022-08-26T03:24:15.488Z,99687.50
2022-08-26T03:27:05.973Z,99729.41
2022-08-26T03:30:13.237Z,99728.84
2022-08-26T03:33:03.555Z,99716.84
2022-08-26T03:35:53.093Z,99736.94
2022-08-26T03:38:41.666Z,99734.22
2022-08-26T03:41:34.913Z,99716.81
2022-08-26T03:44:23.408Z,99741.03
2022-08-26T03:47:12.007Z,99740.47
2022-08-26T03:50:00.869Z,99737.75
2022-08-26T03:52:49.875Z,99739.94
2022-08-26T03:55:38.723Z,99733.72
2022-08-26T03:58:29.260Z,99740.19
2022-08-26T04:01:17.828Z,99732.03
2022-08-26T04:04:07.753Z,99733.63
2022-08-26T04:06:58.439Z,99728.16
2022-08-26T04:09:47.457Z,99734.44
2022-08-26T04:12:37.221Z,99739.38
2022-08-26T04:15:27.909Z,99737.97
2022-08-26T04:18:16.809Z,99742.22
2022-08-26T04:21:07.780Z,99728.66
2022-08-26T04:23:58.340Z,99732.72
2022-08-26T04:26:46.966Z,99723.94
2022-08-26T04:29:35.508Z,99734.03
2022-08-26T04:32:25.499Z,99735.09
2022-08-26T04:35:14.012Z,99732.66
2022-08-26T04:38:03.263Z,99737.25
2022-08-26T04:40:54.354Z,99731.31
2022-08-26T04:43:42.903Z,99740.88
2022-08-26T04:46:31.456Z,99736.19
2022-08-26T04:49:21.671Z,99742.16
2022-08-26T04:52:10.261Z,99735.56
2022-08-26T04:54:59.029Z,99747.50
2022-08-26T04:57:47.886Z,99748.88
2022-08-26T05:00:36.463Z,99712.63
2022-08-26T05:03:27.345Z,99756.66
2022-08-26T05:06:20.626Z,99759.41
2022-08-26T05:09:10.777Z,99736.25
2022-08-26T05:11:59.311Z,99754.78
2022-08-26T05:14:47.828Z,99732.44
2022-08-26T05:17:36.428Z,99758.91
2022-08-26T05:20:26.211Z,99762.97
2022-08-26T05:23:17.166Z,99760.00
2022-08-26T05:26:09.687Z,99766.53
2022-08-26T05:28:58.781Z,99771.44
2022-08-26T05:31:47.355Z,99769.56
2022-08-26T05:34:37.468Z,99769.19
2022-08-26T05:37:26.867Z,99778.47
2022-08-26T05:40:16.808Z,99777.44
2022-08-26T05:43:10.448Z,99780.50
2022-08-26T05:46:06.944Z,99781.38
2022-08-26T05:48:55.844Z,99789.06
2022-08-26T05:51:46.372Z,99788.38
2022-08-26T05:54:36.397Z,99783.78
2022-08-26T05:57:29.098Z,99796.06
2022-08-26T06:00:18.211Z,99793.88
2022-08-26T06:03:08.339Z,99799.41
2022-08-26T06:05:56.931Z,99806.75
2022-08-26T06:08:47.547Z,99806.78
2022-08-26T06:11:36.148Z,99800.53
2022-08-26T06:14:26.889Z,99805.44
2022-08-26T06:17:15.454Z,99803.00
2022-08-26T06:20:04.817Z,99802.72
2022-08-26T06:23:11.339Z,99800.81
2022-08-26T06:26:00.342Z,99804.66
2022-08-26T06:28:48.852Z,99805.72
2022-08-26T06:31:40.082Z,99814.38
2022-08-26T06:34:30.372Z,99811.59
2022-08-26T06:37:19.459Z,99808.47
2022-08-26T06:40:11.434Z,99794.47
2022-08-26T06:43:00.513Z,99815.59
2022-08-26T06:45:49.288Z,99819.19
2022-08-26T06:48:40.155Z,99799.59
2022-08-26T06:51:30.963Z,99773.91
2022-08-26T06:54:22.875Z,99807.66
2022-08-26T06:57:11.774Z,99808.81
2022-08-26T07:00:00.243Z,99817.50
2022-08-26T07:02:49.144Z,99814.38
2022-08-26T07:05:39.124Z,99814.34
2022-08-26T07:08:27.707Z,99804.19
2022-08-26T07:11:16.390Z,99817.44
2022-08-26T07:14:06.046Z,99816.88
2022-08-26T07:16:54.774Z,99822.06
2022-08-26T07:19:44.341Z,99815.41
2022-08-26T07:22:34.453Z,99790.75
2022-08-26T07:25:23.057Z,99834.94
2022-08-26T07:28:12.041Z,99837.69
2022-08-26T07:31:05.261Z,99837.78
2022-08-26T07:33:58.391Z,99834.00
2022-08-26T07:36:46.988Z,99842.75
2022-08-26T07:39:40.405Z,99842.94
2022-08-26T07:42:29.089Z,99794.78
2022-08-26T07:45:18.196Z,99846.56
2022-08-26T07:48:07.497Z,99838.03
2022-08-26T07:50:56.092Z,99758.44
2022-08-26T07:53:44.804Z,99843.50
2022-08-26T07:56:38.064Z,99840.22
2022-08-26T07:59:28.319Z,99843.38
2022-08-26T08:02:19.211Z,99852.91
2022-08-26T08:05:08.433Z,99858.16
2022-08-26T08:08:26.306Z,99854.13
2022-08-26T08:11:05.918Z,99855.59
2022-08-26T08:13:56.830Z,99820.22
2022-08-26T08:16:46.871Z,99848.16
2022-08-26T08:19:39.045Z,99824.06
2022-08-26T08:22:27.881Z,99842.69
2022-08-26T08:25:16.658Z,99850.56
2022-08-26T08:28:05.428Z,99849.03
2022-08-26T08:30:55.989Z,99854.69
2022-08-26T08:33:44.504Z,99855.72
2022-08-26T08:36:35.838Z,99849.28
2022-08-26T08:39:24.976Z,99847.63
2022-08-26T08:42:31.775Z,99847.88
2022-08-26T08:45:23.842Z,99851.00
2022-08-26T08:48:17.270Z,99848.31
2022-08-26T08:51:13.380Z,99843.50
2022-08-26T08:54:03.258Z,99838.03
2022-08-26T08:56:54.742Z,99838.53
2022-08-26T08:59:53.193Z,99834.16
2022-08-26T09:02:48.663Z,99827.59
2022-08-26T09:05:48.575Z,99826.69
2022-08-26T09:08:37.494Z,99830.78
2022-08-26T09:11:26.038Z,99835.56
2022-08-26T09:14:14.608Z,99832.84
2022-08-26T09:17:08.893Z,99838.84
2022-08-26T09:20:07.112Z,99835.16
2022-08-26T09:22:57.725Z,99837.84
2022-08-26T09:25:48.587Z,99831.50
2022-08-26T09:28:37.203Z,99830.78
2022-08-26T09:31:27.682Z,99799.69
2022-08-26T09:34:19.161Z,99825.81
2022-08-26T09:37:08.801Z,99828.84
2022-08-26T09:40:13.789Z,99814.47
2022-08-26T09:43:11.958Z,99821.16
2022-08-26T09:46:13.589Z,99810.34
2022-08-26T09:49:24.390Z,99807.59
2022-08-26T09:52:23.435Z,99794.72
2022-08-26T09:55:17.092Z,99794.78
2022-08-26T09:58:08.763Z,99802.00
2022-08-26T10:01:01.398Z,99791.38
2022-08-26T10:03:50.641Z,99788.16
2022-08-26T10:06:42.387Z,99773.19
2022-08-26T10:09:35.373Z,99781.81
2022-08-26T10:12:25.449Z,99773.84
2022-08-26T10:15:15.819Z,99764.03
2022-08-26T10:18:09.490Z,99764.81
2022-08-26T10:21:03.959Z,99758.09
2022-08-26T10:23:54.604Z,99755.47
2022-08-26T10:26:57.927Z,99750.03
2022-08-26T10:29:49.900Z,99748.59
2022-08-26T10:32:46.012Z,99717.69
2022-08-26T10:35:36.692Z,99728.03
2022-08-26T10:38:29.444Z,99730.97
2022-08-26T10:41:21.941Z,99729.97
2022-08-26T10:44:13.043Z,99733.91
2022-08-26T10:47:10.318Z,99739.44
2022-08-26T10:50:03.346Z,99740.63
2022-08-26T10:53:00.145Z,99731.84
2022-08-26T10:55:55.057Z,99732.97
2022-08-26T10:58:53.995Z,99725.19
2022-08-26T11:01:50.838Z,99726.84
2022-08-26T11:04:48.317Z,99719.50
2022-08-26T11:07:40.382Z,99715.06
2022-08-26T11:11:04.141Z,99707.88
2022-08-26T11:14:01.098Z,99716.06
2022-08-26T11:16:51.889Z,99701.22
2022-08-26T11:20:13.609Z,99710.34
2022-08-26T11:23:36.193Z,99701.28
2022-08-26T11:26:56.182Z,99663.75
2022-08-26T11:30:01.988Z,99705.50
2022-08-26T11:32:52.980Z,99683.22
2022-08-26T11:35:50.891Z,99689.50
2022-08-26T11:38:43.241Z,99684.50
2022-08-26T11:41:32.448Z,99685.69
2022-08-26T11:44:23.027Z,99675.34
2022-08-26T11:47:14.728Z,99674.63
2022-08-26T11:50:13.418Z,99654.41
2022-08-26T11:53:06.257Z,99640.38
2022-08-26T11:55:56.460Z,99649.75
2022-08-26T11:58:46.624Z,99643.84
2022-08-26T12:01:36.832Z,99641.78
2022-08-26T12:04:29.177Z,99653.50
2022-08-26T12:07:23.858Z,99659.50
2022-08-26T12:10:29.516Z,99654.19
2022-08-26T12:13:23.231Z,99657.81
2022-08-26T12:16:13.571Z,99658.78
2022-08-26T12:19:02.418Z,99664.56
2022-08-26T12:21:51.020Z,99665.81
2022-08-26T12:24:44.595Z,99657.66
2022-08-26T12:27:39.758Z,99658.88
2022-08-26T12:30:30.019Z,99662.75
2022-08-26T12:33:22.713Z,99659.53
2022-08-26T12:36:12.348Z,99642.06
2022-08-26T12:39:09.339Z,99643.28
2022-08-26T12:41:59.368Z,99642.31
2022-08-26T12:44:53.805Z,99645.84
2022-08-26T12:47:44.471Z,99640.19
2022-08-26T12:50:35.192Z,99618.41
2022-08-26T12:53:25.147Z,99625.47
2022-08-26T12:56:23.252Z,99613.06
2022-08-26T12:59:23.743Z,99624.19
2022-08-26T13:02:36.571Z,99612.66
2022-08-26T13:05:27.593Z,99604.03
2022-08-26T13:08:17.986Z,99605.31
2022-08-26T13:11:13.546Z,99591.59
2022-08-26T13:14:06.904Z,99583.53
2022-08-26T13:16:55.926Z,99588.53
2022-08-26T13:19:45.860Z,99583.63
2022-08-26T13:22:34.736Z,99586.47
2022-08-26T13:25:23.458Z,99561.56
2022-08-26T13:28:12.039Z,99569.81
2022-08-26T13:31:00.656Z,99552.44
2022-08-26T13:33:49.672Z,99566.53
2022-08-26T13:36:39.925Z,99572.72
2022-08-26T13:39:28.502Z,99561.47
2022-08-26T13:42:17.051Z,99560.63
2022-08-26T13:45:06.430Z,99562.19
2022-08-26T13:47:55.012Z,99563.00
2022-08-26T13:50:43.528Z,99557.38
2022-08-26T13:53:33.505Z,99552.69
2022-08-26T13:56:22.889Z,99551.78
2022-08-26T13:59:11.487Z,99563.50
2022-08-26T14:02:01.750Z,99547.16
2022-08-26T14:04:50.313Z,99555.91
2022-08-26T14:07:38.843Z,99552.34
2022-08-26T14:10:29.130Z,99559.66
2022-08-26T14:13:18.344Z,99557.97
2022-08-26T14:16:10.209Z,99542.69
2022-08-26T14:19:01.188Z,99545.81
2022-08-26T14:21:50.899Z,99549.69
2022-08-26T14:24:39.491Z,99538.94
2022-08-26T14:27:29.415Z,99541.00
2022-08-26T14:30:18.618Z,99498.00
2022-08-26T14:33:07.183Z,99540.25
2022-08-26T14:36:16.480Z,99537.75
2022-08-26T14:39:07.564Z,99524.28
2022-08-26T14:41:56.970Z,99527.94
2022-08-26T14:44:49.586Z,99522.94
2022-08-26T14:47:38.092Z,99534.22
2022-08-26T14:50:30.693Z,99533.13
2022-08-26T14:53:36.733Z,99542.25
2022-08-26T14:56:25.657Z,99548.22
2022-08-26T14:59:15.232Z,99550.09
2022-08-26T15:02:05.517Z,99563.59
2022-08-26T15:04:54.204Z,99564.50
2022-08-26T15:07:42.951Z,99574.44
2022-08-26T15:10:31.563Z,99563.19
2022-08-26T15:13:20.170Z,99577.53
2022-08-26T15:16:08.868Z,99566.28
2022-08-26T15:18:59.245Z,99572.34
2022-08-26T15:21:48.312Z,99565.00
2022-08-26T15:24:36.972Z,99581.56
2022-08-26T15:27:25.580Z,99576.94
2022-08-26T15:30:16.501Z,99587.91
2022-08-26T15:33:05.176Z,99609.50
2022-08-26T15:35:55.744Z,99626.34
2022-08-26T15:38:44.476Z,99611.69
2022-08-26T15:41:34.880Z,99610.72
2022-08-26T15:44:23.756Z,99600.97
2022-08-26T15:47:12.588Z,99593.22
2022-08-26T15:50:01.218Z,99585.19
2022-08-26T15:52:51.134Z,99581.13
2022-08-26T15:55:39.674Z,99587.91
2022-08-26T15:58:29.702Z,99583.53
2022-08-26T16:01:24.384Z,99593.25
2022-08-26T16:04:17.535Z,99628.56
2022-08-26T16:07:06.142Z,99635.09
2022-08-26T16:09:56.730Z,99649.72
2022-08-26T16:12:45.334Z,99654.53
2022-08-26T16:15:34.383Z,99665.16
2022-08-26T16:18:23.601Z,99662.16
2022-08-26T16:21:16.853Z,99663.50
2022-08-26T16:24:05.910Z,99664.72
2022-08-26T16:26:55.860Z,99646.97
2022-08-26T16:29:44.459Z,99654.56
2022-08-26T16:32:33.062Z,99673.56
2022-08-26T16:35:21.616Z,99683.31
2022-08-26T16:38:10.977Z,99658.59
2022-08-26T16:41:01.043Z,99676.56
2022-08-26T16:43:51.480Z,99692.78
2022-08-26T16:46:41.121Z,99704.81
2022-08-26T16:49:29.786Z,99709.31
2022-08-26T16:52:18.525Z,99729.09
2022-08-26T16:55:09.016Z,99744.84
2022-08-26T16:57:57.579Z,99785.09
2022-08-26T17:00:47.573Z,99805.75
2022-08-26T17:03:36.421Z,99808.38
2022-08-26T17:06:25.041Z,99797.13
2022-08-26T17:09:16.733Z,99808.31
2022-08-26T17:12:05.986Z,99812.53
2022-08-26T17:14:54.575Z,99809.94
2022-08-26T17:17:44.593Z,99816.47
2022-08-26T17:20:33.580Z,99815.75
2022-08-26T17:23:23.104Z,99794.16
2022-08-26T17:26:12.812Z,99755.16
2022-08-26T17:29:01.685Z,99671.72
2022-08-26T17:31:50.175Z,99718.72
2022-08-26T17:34:40.103Z,99717.81
2022-08-26T17:37:28.697Z,99735.31
2022-08-26T17:40:19.552Z,99754.66
2022-08-26T17:43:12.201Z,99757.56
2022-08-26T17:46:06.707Z,99746.75
2022-08-26T17:48:56.295Z,99748.59
2022-08-26T17:51:46.392Z,99736.28
2022-08-26T17:54:34.901Z,99740.34
2022-08-26T17:57:23.448Z,99735.41
2022-08-26T18:00:15.461Z,99729.53
2022-08-26T18:03:04.170Z,99734.56
2022-08-26T18:05:53.443Z,99741.09
2022-08-26T18:08:43.982Z,99722.63
2022-08-26T18:11:34.283Z,99740.50
2022-08-26T18:14:22.878Z,99757.38
2022-08-26T18:17:11.464Z,99749.19
2022-08-26T18:20:04.030Z,99750.25
2022-08-26T18:22:52.635Z,99746.22
2022-08-26T18:25:43.503Z,99683.13
2022-08-26T18:28:32.221Z,99760.41
2022-08-26T18:31:21.096Z,99765.47
2022-08-26T18:34:12.765Z,99771.41
2022-08-26T18:37:01.401Z,99777.16
2022-08-26T18:39:50.036Z,99784.56
2022-08-26T18:42:41.256Z,99789.19
2022-08-26T18:45:29.833Z,99780.81
2022-08-26T18:48:18.362Z,99785.78
2022-08-26T18:51:07.245Z,99793.44
2022-08-26T18:54:03.018Z,99796.69
2022-08-26T18:56:51.735Z,99801.03
2022-08-26T18:59:41.912Z,99803.97
2022-08-26T19:02:30.712Z,99803.13
2022-08-26T19:05:19.735Z,99801.88
2022-08-26T19:08:08.765Z,99801.88
2022-08-26T19:10:57.416Z,99785.59
2022-08-26T19:13:46.404Z,99787.34
2022-08-26T19:16:39.121Z,99774.47
2022-08-26T19:19:27.719Z,99791.56
2022-08-26T19:22:16.363Z,99783.69
2022-08-26T19:25:05.402Z,99782.06
2022-08-26T19:27:53.959Z,99777.97
2022-08-26T19:30:44.230Z,99783.66
2022-08-26T19:33:34.238Z,99791.31
2022-08-26T19:36:24.737Z,99784.59
2022-08-26T19:39:13.348Z,99797.19
2022-08-26T19:42:01.923Z,99797.78
2022-08-26T19:45:24.924Z,99799.94
2022-08-26T19:48:14.194Z,99807.06
2022-08-26T19:51:04.322Z,99811.94
2022-08-26T19:53:54.255Z,99812.19
2022-08-26T19:56:45.864Z,99815.47
2022-08-26T19:59:37.322Z,99798.06
2022-08-26T20:02:25.942Z,99810.56
2022-08-26T20:05:16.122Z,99812.44
2022-08-26T20:08:06.090Z,99826.63
2022-08-26T20:10:55.184Z,99826.63
2022-08-26T20:13:44.943Z,99825.53
2022-08-26T20:16:33.796Z,99823.03
2022-08-26T20:19:40.022Z,99831.97
2022-08-26T20:22:28.857Z,99830.66
2022-08-26T20:25:19.087Z,99833.41
2022-08-26T20:28:07.651Z,99832.31
2022-08-26T20:30:56.233Z,99831.69
2022-08-26T20:33:46.326Z,99843.16
2022-08-26T20:36:35.316Z,99810.78
2022-08-26T20:39:23.906Z,99855.97
2022-08-26T20:42:20.116Z,99856.53
2022-08-26T20:45:11.913Z,99854.91
2022-08-26T20:48:00.657Z,99843.19
2022-08-26T20:50:49.222Z,99840.97
2022-08-26T20:53:37.752Z,99852.69
2022-08-26T20:56:26.670Z,99836.59
2022-08-26T20:59:17.023Z,99834.97
2022-08-26T21:02:05.559Z,99844.50
2022-08-26T21:04:54.416Z,99830.06
2022-08-26T21:07:43.016Z,99822.25
2022-08-26T21:10:32.030Z,99827.69
2022-08-26T21:13:21.411Z,99833.13
2022-08-26T21:16:11.909Z,99848.06
2022-08-26T21:19:00.711Z,99832.81
2022-08-26T21:21:49.692Z,99844.00
2022-08-26T21:24:38.282Z,99837.00
2022-08-26T21:27:26.899Z,99838.88
2022-08-26T21:30:17.121Z,99837.50
2022-08-26T21:33:07.485Z,99842.09
2022-08-26T21:35:56.959Z,99847.00
2022-08-26T21:38:45.723Z,99848.59
2022-08-26T21:41:34.381Z,99857.28
2022-08-26T21:44:22.952Z,99842.59
2022-08-26T21:47:11.446Z,99851.91
2022-08-26T21:50:03.590Z,99836.16
2022-08-26T21:52:52.140Z,99858.22
2022-08-26T21:55:42.204Z,99890.38
2022-08-26T21:58:30.791Z,99865.97
2022-08-26T22:01:21.708Z,99874.19
2022-08-26T22:04:11.086Z,99866.28
2022-08-26T22:07:00.999Z,99884.81
2022-08-26T22:09:49.735Z,99901.47
2022-08-26T22:12:38.669Z,99900.16
2022-08-26T22:15:27.844Z,99914.91
2022-08-26T22:18:17.454Z,99912.72
2022-08-26T22:21:09.174Z,99942.97
2022-08-26T22:23:59.698Z,99947.34
2022-08-26T22:26:48.954Z,99944.06
2022-08-26T22:29:37.856Z,99938.09
2022-08-26T22:32:26.451Z,99937.53
2022-08-26T22:35:29.337Z,99930.75
2022-08-26T22:38:18.571Z,99924.19
2022-08-26T22:41:09.752Z,99892.06
2022-08-26T22:43:58.410Z,99908.38
2022-08-26T22:46:47.751Z,99918.16
2022-08-26T22:49:36.367Z,99944.34
2022-08-26T22:52:24.869Z,99932.34
2022-08-26T22:55:13.380Z,99911.38
2022-08-26T22:58:03.486Z,99924.44
2022-08-26T23:00:52.420Z,99935.34
2022-08-26T23:03:44.381Z,99926.63
2022-08-26T23:06:33.059Z,99932.09
2022-08-26T23:09:21.763Z,99910.00
2022-08-26T23:12:10.351Z,99898.31
2022-08-26T23:15:00.306Z,99909.22
2022-08-26T23:17:55.895Z,99900.22
2022-08-26T23:20:47.659Z,99902.66
2022-08-26T23:23:36.315Z,99907.28
2022-08-26T23:26:24.859Z,99917.94
2022-08-26T23:29:15.525Z,99929.38
2022-08-26T23:32:05.805Z,99924.47
2022-08-26T23:34:58.630Z,99928.56
2022-08-26T23:37:48.529Z,99898.88
2022-08-26T23:40:41.555Z,99920.13
2022-08-26T23:43:31.119Z,99929.66
2022-08-26T23:46:21.637Z,99926.38
2022-08-26T23:49:15.809Z,99923.66
2022-08-26T23:52:24.168Z,99927.47
2022-08-26T23:55:15.291Z,99929.91
2022-08-26T23:58:05.081Z,99905.94
